LCLK Airport Information

Runway Information
Runway 04 Length 9776 ft width 148 ft
Elevation 11 ft Threshold 0 ft Heading 45
Runway 22 Length 9776 ft Width 148 ft
Elevation 6 ft Threshold 575 ft Heading 225
Airport Frequencies
Type APP Name APP Frequency 121.2 MHZ
Type ATIS Name ATIS Frequency 126.55 MHZ
Type TWR Name TWR Frequency 119.4 MHZ
Airport Navaids
Type VOR-DME Name Larnaca Frequency 112800 KHZ
Type NDB Name Larnaca Frequency 432 KHZ
Airport Weather Information & NOTAM
ADDS - METARS form results

(1849 UTC 28 January 2020)
Data provider http://aviationweather.gov/metar/data/
 
METAR text: LCLK 281830Z 32003KT 280V360 9999 FEW020TCU SCT050 12/10 Q1016 NOSIG
Conditions at: LCLK (LARNACA/LARNAX A, CY) observed 1830 UTC 28 January 2020
Temperature: 12.0°C (54°F)
Dewpoint: 10.0°C (50°F) [RH = 88%]
Pressure (altimeter): 30.00 inches Hg (1016.0 mb)
Winds: from the NW (320 degrees) at 3 MPH (3 knots; 1.5 m/s)
Visibility: 6 or more miles (10+ km)
Ceiling: at least 12,000 feet AGL
Clouds: few clouds at 2000 feet AGL
scattered clouds at 5000 feet AGL
Weather: no significant weather observed at this time

METAR text: LCLK 281800Z 00000KT 9999 FEW020TCU SCT050 12/10 Q1016 NOSIG
Conditions at: LCLK (LARNACA/LARNAX A, CY) observed 1800 UTC 28 January 2020
Temperature: 12.0°C (54°F)
Dewpoint: 10.0°C (50°F) [RH = 88%]
Pressure (altimeter): 30.00 inches Hg (1016.0 mb)
Winds: calm
Visibility: 6 or more miles (10+ km)
Ceiling: at least 12,000 feet AGL
Clouds: few clouds at 2000 feet AGL
scattered clouds at 5000 feet AGL
Weather: no significant weather observed at this time

Forecast for: LCLK (LARNACA/LARNAX A, CY)
Text: TAF LCLK 281730Z 2818/2918 34008KT 9999 SCT030
Forecast period: 1800 UTC 28 January 2020 to 1000 UTC 29 January 2020
Forecast type: FROM: standard forecast or significant change
Winds: from the NNW (340 degrees) at 9 MPH (8 knots; 4.1 m/s)
Visibility: 6 or more miles 10+ km)
Ceiling: at least 12,000 feet AGL
Clouds: scattered clouds at 3000 feet AGL
Weather: no significant weather forecast for this period
Text: PROB40
Forecast period: 1800 to 2200 UTC 28 January 2020
Forecast type: TEMPORARY: The following changes expected for less than half the time period
Visibility: 3 miles (5 km)
Ceiling: unknown
Clouds: missing
Weather: SHRA  (rain showers)
Text: TEMPO 2818/2822 5000 SHRA
Forecast period: 1000 to 1800 UTC 29 January 2020
Forecast type: BECOMING: Conditions expected to become as follows by 1200 UTC 29 January 2020
Winds: from the S (180 degrees) at 12 MPH (10 knots; 5.1 m/s)
Visibility: 6 or more miles 10+ km)
Ceiling: at least 12,000 feet AGL
Clouds: scattered clouds at 3000 feet AGL
Weather: no significant weather forecast for this period